• Join FlightAware (Why Join?)
  • Login
  • US Flag 
06:54PM EDT


 

Airport Tracker/Info


-or-


 

Live Flight TrackerFlight Track Log ✈ VET90 ✈ 18-Nov-2013 ✈ KCCO - KGMU

Flight Track Log - Related Links

Times and Time Zones

All times are in EST time to prevent confusion due to time zone crossing. See the VET90 flight status page for this flight to view local times or setup timezone preferences in your user account.

Time Position Orientation Groundspeed Altitude Reporting Facility
EST Latitude Longitude Course Direction KTS MPH feet Rate Location/Type
09:09PM 33.3333 -84.7333 90° East 166 191 3,400  Level Atlanta TRACON
09:10PM 33.3333 -84.6667 90° East 195 224 4,000 300 Climbing Atlanta TRACON
09:11PM 33.3333 -84.6000 90° East 222 255 4,000 60 Level Atlanta TRACON
09:12PM 33.3167 -84.5167 103° East 224 258 4,200 720 Climbing Atlanta TRACON
09:13PM 33.3167 -84.4500 90° East 187 215 5,500 1,200 Climbing Atlanta TRACON
09:14PM 33.3167 -84.4000 90° East 171 197 6,700 1,200 Climbing Atlanta TRACON
09:15PM 33.3167 -84.3333 90° East 181 208 8,000 1,080 Climbing Atlanta TRACON
09:16PM 33.3333 -84.2833 68° East 188 216 8,900 480 Climbing Atlanta TRACON
09:17PM 33.3500 -84.2167 73° East 225 259 9,000  Climbing Atlanta TRACON
09:18PM 33.3664 -84.1408 75° East 253 291 9,000  Level Atlanta Center
09:19PM 33.3956 -84.0686 64° Northeast 243 280 9,000  Level Atlanta Center
09:20PM 33.4269 -84.0089 58° Northeast 237 273 9,000  Level Atlanta Center
09:21PM 33.4644 -83.9442 55° Northeast 231 266 9,000  Level Atlanta Center
09:22PM 33.5019 -83.8794 55° Northeast 231 266 9,000  Level Atlanta Center
09:23PM 33.5394 -83.8169 54° Northeast 231 266 9,000 300 Level Atlanta Center
09:24PM 33.5769 -83.7569 53° Northeast 226 260 9,600 660 Climbing Atlanta Center
09:25PM 33.6100 -83.6997 55° Northeast 213 245 10,400 660 Climbing Atlanta Center
09:26PM 33.6433 -83.6372 57° Northeast 215 247 11,000 300 Climbing Atlanta Center
09:27PM 33.6869 -83.5819 47° Northeast 222 255 11,100 540 Climbing Atlanta Center
09:28PM 33.7347 -83.5317 41° Northeast 222 255 12,100 900 Climbing Atlanta Center
09:29PM 33.7806 -83.4814 42° Northeast 207 238 13,000 420 Climbing Atlanta Center
09:30PM 33.8303 -83.4261 43° Northeast 216 249 13,000  Level Atlanta Center
09:31PM 33.8822 -83.3733 40° Northeast 234 269 13,000  Level Atlanta Center
09:32PM 33.9361 -83.3153 42° Northeast 245 282 13,000  Level Atlanta Center
09:33PM 33.9881 -83.2622 40° Northeast 245 282 13,000  Level Atlanta Center
09:34PM 34.0419 -83.2039 42° Northeast 245 282 13,000  Level Atlanta Center
09:35PM 34.0958 -83.1508 39° Northeast 245 282 13,000  Level Atlanta Center
09:36PM 34.1475 -83.0950 42° Northeast 245 282 13,000  Level Atlanta Center
09:37PM 34.1972 -83.0392 43° Northeast 245 282 13,000  Level Atlanta Center
09:38PM 34.2508 -82.9833 41° Northeast 245 282 13,000  Level Atlanta Center
09:39PM 34.3025 -82.9247 43° Northeast 245 282 13,000 -360 Level Atlanta Center
09:40PM 34.3522 -82.8764 39° Northeast 245 282 12,300 -960 Descending Atlanta Center
09:41PM 34.3997 -82.8178 46° Northeast 247 284 11,100 -900 Descending Atlanta Center
09:42PM 34.4556 -82.7717 34° Northeast 239 275 10,500 -840 Descending Atlanta Center
09:43PM 34.5050 -82.7128 44° Northeast 239 275 9,500 -1,020 Descending Atlanta Center
09:44PM 34.5503 -82.6542 47° Northeast 234 269 8,500 -1,020 Descending Atlanta Center
09:45PM 34.5933 -82.5956 48° Northeast 234 269 7,500 -1,200 Descending Atlanta Center
09:46PM 34.6367 -82.5392 47° Northeast 229 264 6,200 -1,440 Descending Atlanta Center
09:47PM 34.6756 -82.4828 50° Northeast 217 250 4,700 -1,500 Descending Atlanta Center
09:48PM 34.7125 -82.4342 47° Northeast 206 237 3,200 -1,500 Descending Atlanta Center
09:50PM 34.8070 -82.3763 39° Northeast  Level FlightAware Approximate
09:57PM 34.8333 -82.3500 39° Northeast  Level FlightAware Approximate
09:58PM 34.8479 -82.3500 39° Northeast  Level Estimated
09:59PM 34.8479 -82.3500 39° Northeast  Level Estimated
10:00PM 34.8479 -82.3500 39° Northeast  Level Estimated
10:01PM 34.8479 -82.3500 39° Northeast  Level Estimated